Strona główna
METAR-TAF:

METAR-TAF

Lotnisko :

Port lotniczy Eindhoven

Eindhoven, Holandia

Szerokość geograficzna: 51-27N, Długość geograficzna: 005-25E, wysokość: 23 m

Aktualna obserwacja pogody

Raport powstał 34 minut temu, godzina 02:55 UTC
Wiatr 6 kt od północ
Temperatura 16°C
Wilgotność 88%
Ciśnienie 1020 hPa
Widzialność: 7000 m
Zachmurzenie całkowite na wysokości 25000 ft
zamglenie

METAR: EHEH 150255Z AUTO 35006KT 7000 BR OVC250 16/14 Q1020 WHT

czas: 05:29 (03:29 UTC)

Prognoza

Raport powstał 4 godziny i 14 minut temu, godzina 23:15 UTC
Prognoza ważna od 15 godzina 00 UTC do 16 godzina 06 UTC
Wiatr 6 kt od północ
Widzialność 10 km lub więcej
Brak chmur poniżej 1500 m i brak chmur cumulonimbus
Stopniowe zmiany
od 15 godzina 05 UTC do 15 godzina 08 UTC
Wiatr 8 kt od północno-północny wschód
Stopniowe zmiany
od 15 godzina 20 UTC do 15 godzina 22 UTC
Wiatr 2 kt z kierunków zmiennych

TAF: EHEH 142315Z 1500/1606 35006KT CAVOK BECMG 1505/1508 03008KT BECMG 1520/1522 VRB02KT

Obserwacja i prognoza pogody dla ponad 4000 lotnisk (raport METAR i TAF).

Dostępne stacje oznaczono żółtymi i czerwonymi punktami na mapie.

Najedź kursorem aby zobaczyć nazwę stacji.

Kliknij aby zobaczyć obserwacje i prognozy pogody.

Aby zmienić mapę: kliknij na zielony przycisk z czarnym krzyżykiem, aby powiększyć; na zielony przycisk z myślnikiem, aby pomniejszyć; na zielone strzałki, aby przejść do map sąsiednich.


METAR-TAF: